Time;durP1;ratioP1;P1;durP2;ratioP2;P2;SDS_P1;SDS_P2;PMS_P1;PMS_P2;Temp;Humidity;BMP_temperature;BMP_pressure;BME280_temperature;BME280_humidity;BME280_pressure;Samples;Min_cycle;Max_cycle;Signal;HPM_P1;HPM_P2
2023/10/08 00:00:47;;;;;;;10.27;6.00;;;;;;;;;;4979519;28;20319;-71
2023/10/08 00:03:14;;;;;;;11.83;6.23;;;;;;;;;;4979730;28;20177;-71
2023/10/08 00:05:41;;;;;;;12.27;5.97;;;;;;;;;;4979390;28;20567;-71
2023/10/08 00:08:08;;;;;;;11.37;6.03;;;;;;;;;;4980920;28;20256;-71
2023/10/08 00:10:39;;;;;;;10.70;5.67;;;;;;;;;;4980681;28;20177;-70
2023/10/08 00:13:09;;;;;;;10.37;5.60;;;;;;;;;;4979721;28;20323;-71
2023/10/08 00:15:36;;;;;;;11.77;6.20;;;;;;;;;;4979357;28;20231;-71
2023/10/08 00:18:02;;;;;;;7.53;5.13;;;;;;;;;;4977774;28;20187;-71
2023/10/08 00:20:35;;;;;;;9.73;5.67;;;;;;;;;;4977777;28;20208;-71
2023/10/08 00:23:03;;;;;;;10.73;5.63;;;;;;;;;;5010731;23;20655;-66
2023/10/08 00:25:30;;;;;;;9.07;6.20;;;;;;;;;;5014750;28;20230;-66
2023/10/08 00:27:56;;;;;;;9.63;6.03;;;;;;;;;;5015922;28;20191;-66
2023/10/08 00:30:22;;;;;;;10.67;6.00;;;;;;;;;;5015012;28;20180;-66
2023/10/08 00:32:48;;;;;;;9.70;5.70;;;;;;;;;;5014692;28;20716;-66
2023/10/08 00:35:15;;;;;;;8.53;5.70;;;;;;;;;;5015230;28;20180;-66
2023/10/08 00:37:41;;;;;;;10.33;5.87;;;;;;;;;;5019205;28;20188;-66
2023/10/08 00:40:12;;;;;;;15.90;6.17;;;;;;;;;;5029973;28;20254;-66
2023/10/08 00:42:45;;;;;;;10.47;5.83;;;;;;;;;;5025403;28;20203;-67
2023/10/08 00:45:13;;;;;;;9.50;5.97;;;;;;;;;;5017574;28;20602;-67
2023/10/08 00:47:43;;;;;;;9.33;5.77;;;;;;;;;;5016907;28;20190;-66
2023/10/08 00:50:13;;;;;;;10.93;6.07;;;;;;;;;;5016006;28;20176;-67
2023/10/08 00:52:53;;;;;;;12.73;5.97;;;;;;;;;;5014313;28;20240;-66
2023/10/08 00:55:28;;;;;;;11.07;6.03;;;;;;;;;;5015623;28;20168;-67
2023/10/08 00:58:09;;;;;;;11.43;5.60;;;;;;;;;;5016000;28;20163;-67
2023/10/08 01:00:42;;;;;;;10.33;6.23;;;;;;;;;;5015751;28;20191;-67
2023/10/08 01:03:14;;;;;;;9.87;5.63;;;;;;;;;;5015340;28;20287;-67
2023/10/08 01:05:47;;;;;;;10.67;5.67;;;;;;;;;;5015360;28;20226;-67
2023/10/08 01:08:18;;;;;;;12.23;6.07;;;;;;;;;;5015320;28;20547;-66
2023/10/08 01:10:47;;;;;;;15.60;6.17;;;;;;;;;;5015297;28;20171;-67
2023/10/08 01:13:20;;;;;;;16.03;6.53;;;;;;;;;;5015513;28;20677;-67
2023/10/08 01:15:50;;;;;;;10.00;5.97;;;;;;;;;;5013938;28;20176;-67
2023/10/08 01:18:18;;;;;;;10.67;5.87;;;;;;;;;;5014763;28;20668;-67
2023/10/08 01:23:13;;;;;;;11.03;5.97;;;;;;;;;;5015083;28;20222;-68
2023/10/08 01:25:40;;;;;;;10.87;5.77;;;;;;;;;;5013256;28;20642;-66
2023/10/08 01:28:20;;;;;;;12.37;6.30;;;;;;;;;;5014505;28;20179;-67
2023/10/08 01:30:47;;;;;;;11.33;6.30;;;;;;;;;;5015170;28;20283;-67
2023/10/08 01:33:16;;;;;;;9.03;5.53;;;;;;;;;;5014708;28;20277;-67
2023/10/08 01:35:42;;;;;;;13.27;6.80;;;;;;;;;;5014774;28;20179;-67
2023/10/08 01:38:23;;;;;;;10.53;5.33;;;;;;;;;;5014794;28;20642;-66
2023/10/08 01:40:50;;;;;;;10.27;5.67;;;;;;;;;;5013176;28;20200;-67
2023/10/08 01:43:17;;;;;;;11.30;6.53;;;;;;;;;;5013227;28;20200;-67
2023/10/08 01:45:48;;;;;;;15.07;6.10;;;;;;;;;;5014448;28;20222;-67
2023/10/08 01:48:14;;;;;;;11.70;6.43;;;;;;;;;;5013747;28;20179;-66
2023/10/08 01:50:40;;;;;;;10.63;5.97;;;;;;;;;;5014729;28;20184;-67
2023/10/08 01:53:09;;;;;;;13.63;6.23;;;;;;;;;;5014069;28;20252;-67
2023/10/08 01:55:45;;;;;;;13.97;6.30;;;;;;;;;;5014538;28;20757;-66
2023/10/08 01:58:16;;;;;;;12.57;6.80;;;;;;;;;;5012935;28;20214;-66
2023/10/08 02:00:46;;;;;;;10.30;6.07;;;;;;;;;;5012718;28;20207;-67
2023/10/08 02:03:15;;;;;;;12.80;6.37;;;;;;;;;;5013803;28;20246;-67
2023/10/08 02:05:42;;;;;;;16.33;6.80;;;;;;;;;;5012509;28;20209;-67
2023/10/08 02:08:08;;;;;;;10.63;6.00;;;;;;;;;;5013874;28;20168;-67
2023/10/08 02:10:35;;;;;;;11.10;6.17;;;;;;;;;;5014031;28;20184;-67
2023/10/08 02:13:01;;;;;;;12.50;6.47;;;;;;;;;;5013726;28;20226;-66
2023/10/08 02:15:27;;;;;;;11.87;6.27;;;;;;;;;;5012510;28;20183;-67
2023/10/08 02:17:54;;;;;;;12.20;6.47;;;;;;;;;;5013606;28;20258;-65
2023/10/08 02:20:21;;;;;;;16.40;6.57;;;;;;;;;;5013566;28;20235;-66
2023/10/08 02:22:49;;;;;;;13.60;5.93;;;;;;;;;;5013338;28;20269;-66
2023/10/08 02:25:15;;;;;;;22.87;7.10;;;;;;;;;;5013599;28;20180;-66
2023/10/08 02:27:41;;;;;;;14.03;6.10;;;;;;;;;;5013180;28;20226;-65
2023/10/08 02:30:09;;;;;;;14.77;6.00;;;;;;;;;;5013429;28;20180;-66
2023/10/08 02:32:36;;;;;;;12.27;6.10;;;;;;;;;;5013374;28;20190;-66
2023/10/08 02:35:02;;;;;;;15.67;6.37;;;;;;;;;;5013533;28;20176;-66
2023/10/08 02:37:28;;;;;;;10.57;6.60;;;;;;;;;;5013591;28;20658;-66
2023/10/08 02:39:54;;;;;;;13.03;6.30;;;;;;;;;;5011976;28;20199;-64
2023/10/08 02:42:22;;;;;;;10.77;5.73;;;;;;;;;;5012799;28;20179;-65
2023/10/08 02:44:48;;;;;;;12.73;5.97;;;;;;;;;;5013494;28;20183;-65
2023/10/08 02:47:20;;;;;;;12.88;6.10;;;;;;;;;;5012382;28;20443;-65
2023/10/08 02:49:48;;;;;;;10.33;5.80;;;;;;;;;;5013262;28;20195;-66
2023/10/08 02:52:15;;;;;;;12.20;6.23;;;;;;;;;;5013444;28;20183;-67
2023/10/08 02:54:42;;;;;;;11.00;6.50;;;;;;;;;;5011890;28;20396;-65
2023/10/08 02:57:14;;;;;;;13.33;6.83;;;;;;;;;;5013314;28;20204;-65
2023/10/08 02:59:41;;;;;;;14.53;5.80;;;;;;;;;;5013499;28;20553;-66
2023/10/08 03:02:13;;;;;;;13.90;6.30;;;;;;;;;;5013030;28;20176;-66
2023/10/08 03:04:41;;;;;;;10.67;6.27;;;;;;;;;;5013302;28;20196;-64
2023/10/08 03:07:11;;;;;;;11.60;5.87;;;;;;;;;;5013021;28;20172;-65
2023/10/08 03:09:42;;;;;;;11.63;5.80;;;;;;;;;;5013503;28;20160;-64
2023/10/08 03:12:10;;;;;;;17.07;6.37;;;;;;;;;;5013191;28;20603;-64
2023/10/08 03:14:49;;;;;;;14.07;6.27;;;;;;;;;;5015975;28;20192;-66
2023/10/08 03:17:19;;;;;;;11.60;6.27;;;;;;;;;;5022293;28;20175;-66
2023/10/08 03:19:46;;;;;;;10.10;5.60;;;;;;;;;;5017112;28;20295;-65
2023/10/08 03:22:12;;;;;;;9.83;5.97;;;;;;;;;;5012320;28;20187;-64
2023/10/08 03:24:38;;;;;;;9.43;5.87;;;;;;;;;;5011490;28;20226;-65
2023/10/08 03:27:06;;;;;;;11.63;5.70;;;;;;;;;;5011805;28;20266;-65
2023/10/08 03:29:41;;;;;;;8.93;5.33;;;;;;;;;;5013211;28;20233;-64
2023/10/08 03:32:18;;;;;;;10.67;5.63;;;;;;;;;;5011707;28;20210;-66
2023/10/08 03:34:46;;;;;;;9.20;6.30;;;;;;;;;;5011237;28;20172;-65
2023/10/08 03:37:19;;;;;;;12.33;6.27;;;;;;;;;;5012868;28;20176;-67
2023/10/08 03:39:51;;;;;;;11.60;5.77;;;;;;;;;;5013216;28;20198;-64
2023/10/08 03:42:22;;;;;;;8.03;5.43;;;;;;;;;;5011698;28;20165;-64
2023/10/08 03:44:51;;;;;;;9.57;5.50;;;;;;;;;;5015351;28;20191;-65
2023/10/08 03:47:18;;;;;;;14.77;6.57;;;;;;;;;;5013018;28;20176;-65
2023/10/08 03:49:45;;;;;;;10.53;5.53;;;;;;;;;;5013230;28;20187;-65
2023/10/08 03:52:12;;;;;;;10.80;5.70;;;;;;;;;;5012668;28;20195;-66
2023/10/08 03:54:43;;;;;;;13.23;6.00;;;;;;;;;;5016271;28;20203;-65
2023/10/08 03:57:18;;;;;;;10.57;6.17;;;;;;;;;;5016664;28;20168;-66
2023/10/08 03:59:48;;;;;;;13.30;5.73;;;;;;;;;;5016204;28;20672;-64
2023/10/08 04:02:15;;;;;;;11.27;6.20;;;;;;;;;;5014653;28;20176;-64
2023/10/08 04:08:03;;;;;;;8.97;5.67;;;;;;;;;;5007649;28;20212;-66
2023/10/08 04:11:11;;;;;;;11.17;6.07;;;;;;;;;;5016442;28;20199;-65
2023/10/08 04:13:16;;;;;;;8.73;5.77;;;;;;;;;;5010902;28;20227;-65
2023/10/08 04:15:42;;;;;;;13.43;6.23;;;;;;;;;;5016696;28;20182;-65
2023/10/08 04:18:08;;;;;;;11.20;6.40;;;;;;;;;;5016414;28;20180;-66
2023/10/08 04:23:04;;;;;;;9.63;5.60;;;;;;;;;;5015661;28;20643;-64
2023/10/08 04:25:31;;;;;;;8.37;5.70;;;;;;;;;;5015553;28;20206;-66
2023/10/08 04:28:00;;;;;;;11.60;6.03;;;;;;;;;;5016448;28;20603;-66
2023/10/08 04:30:32;;;;;;;10.83;5.57;;;;;;;;;;5014829;28;20274;-65
2023/10/08 04:33:12;;;;;;;10.63;6.17;;;;;;;;;;5015086;28;20227;-66
2023/10/08 04:35:47;;;;;;;10.70;5.77;;;;;;;;;;5015148;28;20273;-66
2023/10/08 04:38:17;;;;;;;11.13;5.77;;;;;;;;;;5015177;28;20182;-66
2023/10/08 04:40:48;;;;;;;13.57;5.60;;;;;;;;;;5015835;28;20203;-66
2023/10/08 04:43:15;;;;;;;9.90;5.77;;;;;;;;;;5015335;28;20200;-65
2023/10/08 04:45:41;;;;;;;11.20;6.03;;;;;;;;;;5014798;28;20192;-66
2023/10/08 04:48:09;;;;;;;13.00;6.10;;;;;;;;;;5016500;28;20176;-65
2023/10/08 04:50:37;;;;;;;15.07;5.77;;;;;;;;;;5013790;28;20642;-65
2023/10/08 04:53:07;;;;;;;9.93;5.57;;;;;;;;;;5015006;28;20279;-65
2023/10/08 04:55:33;;;;;;;12.57;5.77;;;;;;;;;;5015388;28;20161;-66
2023/10/08 04:58:00;;;;;;;10.17;5.57;;;;;;;;;;5014998;28;20187;-66
2023/10/08 05:01:16;;;;;;;12.53;5.80;;;;;;;;;;5013652;28;20211;-66
2023/10/08 05:03:20;;;;;;;10.17;6.10;;;;;;;;;;5012036;28;20253;-65
2023/10/08 05:06:07;;;;;;;12.20;6.83;;;;;;;;;;5014923;28;20178;-65
2023/10/08 05:08:44;;;;;;;9.57;6.23;;;;;;;;;;5013702;28;20180;-66
2023/10/08 05:11:36;;;;;;;8.93;5.77;;;;;;;;;;5013532;28;20257;-66
2023/10/08 05:14:06;;;;;;;11.00;6.13;;;;;;;;;;5014946;28;20191;-66
2023/10/08 05:16:43;;;;;;;12.60;5.90;;;;;;;;;;5014022;28;20183;-66
2023/10/08 05:19:37;;;;;;;13.00;5.77;;;;;;;;;;5013929;28;20175;-66
2023/10/08 05:22:17;;;;;;;15.43;5.80;;;;;;;;;;5017606;28;20188;-66
2023/10/08 05:25:05;;;;;;;11.27;6.00;;;;;;;;;;5018913;28;20192;-65
2023/10/08 05:52:07;;;;;;;10.07;6.27;;;;;;;;;;5024346;28;20183;-65
2023/10/08 05:59:52;;;;;;;15.07;6.80;;;;;;;;;;5014492;28;20569;-64
2023/10/08 06:07:56;;;;;;;10.07;6.03;;;;;;;;;;5014238;28;20206;-66
2023/10/08 06:13:04;;;;;;;10.80;6.27;;;;;;;;;;5014221;28;20302;-64
2023/10/08 06:18:26;;;;;;;12.90;6.53;;;;;;;;;;5013883;28;20687;-66
2023/10/08 06:20:59;;;;;;;11.20;7.57;;;;;;;;;;5012248;28;20227;-65
2023/10/08 06:23:27;;;;;;;13.23;6.50;;;;;;;;;;5011977;28;20207;-66
2023/10/08 06:25:58;;;;;;;12.60;6.67;;;;;;;;;;5013390;28;20175;-66
2023/10/08 06:28:25;;;;;;;15.20;7.13;;;;;;;;;;5013008;28;20199;-65
2023/10/08 06:30:55;;;;;;;13.13;6.57;;;;;;;;;;5013586;28;20506;-66
2023/10/08 06:33:30;;;;;;;12.50;6.67;;;;;;;;;;5012064;28;20613;-66
2023/10/08 06:36:02;;;;;;;11.67;8.60;;;;;;;;;;5041972;23;20263;-68
2023/10/08 06:38:32;;;;;;;16.57;9.47;;;;;;;;;;5019797;28;20168;-68
2023/10/08 06:41:09;;;;;;;13.97;8.43;;;;;;;;;;5017993;28;20204;-69
2023/10/08 06:43:38;;;;;;;15.43;8.97;;;;;;;;;;5016739;28;20213;-69
2023/10/08 06:46:07;;;;;;;15.83;7.90;;;;;;;;;;5016252;28;20200;-69
2023/10/08 06:48:34;;;;;;;15.13;7.33;;;;;;;;;;5016489;28;20179;-69
2023/10/08 06:51:12;;;;;;;10.53;7.63;;;;;;;;;;5017365;28;20172;-68
2023/10/08 06:53:42;;;;;;;12.03;7.70;;;;;;;;;;5018304;28;20190;-68
2023/10/08 06:56:11;;;;;;;13.40;6.77;;;;;;;;;;5015100;28;20207;-68
2023/10/08 06:58:37;;;;;;;12.60;6.93;;;;;;;;;;5025955;28;20188;-70
2023/10/08 07:01:08;;;;;;;11.10;7.23;;;;;;;;;;5027150;28;20207;-69
2023/10/08 07:03:38;;;;;;;13.20;6.70;;;;;;;;;;5027457;28;20237;-67
2023/10/08 07:06:16;;;;;;;12.67;6.70;;;;;;;;;;5024194;28;20227;-69
2023/10/08 07:08:43;;;;;;;14.80;6.57;;;;;;;;;;5020327;28;20192;-68
2023/10/08 07:11:09;;;;;;;11.67;7.07;;;;;;;;;;5018109;28;20182;-70
2023/10/08 07:13:37;;;;;;;16.20;7.27;;;;;;;;;;5018770;28;20206;-70
2023/10/08 07:16:04;;;;;;;15.40;7.00;;;;;;;;;;5018330;28;20203;-68
2023/10/08 07:18:33;;;;;;;15.20;6.70;;;;;;;;;;5015938;28;20184;-70
2023/10/08 07:21:11;;;;;;;14.37;7.83;;;;;;;;;;5017441;28;20199;-69
2023/10/08 07:23:53;;;;;;;14.27;7.47;;;;;;;;;;5015116;28;20207;-69
2023/10/08 07:26:23;;;;;;;13.77;6.80;;;;;;;;;;5015847;28;20584;-68
2023/10/08 07:28:51;;;;;;;17.63;8.00;;;;;;;;;;5022344;28;20231;-69
2023/10/08 07:31:21;;;;;;;16.10;7.27;;;;;;;;;;5020608;28;20179;-68
2023/10/08 07:33:55;;;;;;;17.50;7.73;;;;;;;;;;5021713;28;20226;-68
2023/10/08 07:36:21;;;;;;;12.33;7.43;;;;;;;;;;5022833;28;20222;-68
2023/10/08 07:38:47;;;;;;;14.20;7.37;;;;;;;;;;5021250;28;20176;-68
2023/10/08 07:41:19;;;;;;;16.13;7.70;;;;;;;;;;5021867;28;20613;-66
2023/10/08 07:44:07;;;;;;;17.70;7.63;;;;;;;;;;5022869;28;20160;-70
2023/10/08 07:46:33;;;;;;;13.70;7.37;;;;;;;;;;5023845;28;20234;-68
2023/10/08 07:48:59;;;;;;;18.30;8.00;;;;;;;;;;5022402;28;20190;-66
2023/10/08 07:51:25;;;;;;;16.20;7.97;;;;;;;;;;5021287;28;20184;-69
2023/10/08 07:53:55;;;;;;;16.83;8.77;;;;;;;;;;5019683;28;20179;-68
2023/10/08 07:56:21;;;;;;;13.20;8.17;;;;;;;;;;5019336;28;20204;-68
2023/10/08 07:58:48;;;;;;;24.23;9.10;;;;;;;;;;5019312;28;20175;-68
2023/10/08 08:01:14;;;;;;;18.70;8.47;;;;;;;;;;5020390;28;20262;-68
2023/10/08 08:03:41;;;;;;;23.50;9.77;;;;;;;;;;5021708;28;20254;-68
2023/10/08 08:06:08;;;;;;;21.57;9.70;;;;;;;;;;5020581;28;20618;-67
2023/10/08 08:08:35;;;;;;;18.43;9.43;;;;;;;;;;5022612;28;20168;-68
2023/10/08 08:11:11;;;;;;;24.90;11.07;;;;;;;;;;5020287;28;20184;-68
2023/10/08 08:13:38;;;;;;;14.60;9.20;;;;;;;;;;5018732;28;20175;-67
2023/10/08 08:16:16;;;;;;;19.20;10.10;;;;;;;;;;5019391;28;20283;-68
2023/10/08 08:18:46;;;;;;;25.97;11.43;;;;;;;;;;5020280;28;20210;-69
2023/10/08 08:21:16;;;;;;;21.13;10.17;;;;;;;;;;5020895;28;20247;-70
2023/10/08 08:23:49;;;;;;;25.50;10.77;;;;;;;;;;5020652;28;20180;-68
2023/10/08 08:26:26;;;;;;;28.87;11.23;;;;;;;;;;5021096;28;20207;-68
2023/10/08 08:29:01;;;;;;;22.90;10.77;;;;;;;;;;5020373;28;20168;-69
2023/10/08 08:31:31;;;;;;;18.43;10.17;;;;;;;;;;5018002;28;20650;-69
2023/10/08 08:33:59;;;;;;;20.40;10.53;;;;;;;;;;5020072;28;20258;-67
2023/10/08 08:36:25;;;;;;;16.63;9.77;;;;;;;;;;5019022;28;20310;-68
2023/10/08 08:38:52;;;;;;;15.73;9.77;;;;;;;;;;5019432;28;20183;-68
2023/10/08 08:41:18;;;;;;;16.30;10.40;;;;;;;;;;5018824;28;20206;-68
2023/10/08 08:43:47;;;;;;;20.70;10.43;;;;;;;;;;5018492;28;20376;-68
2023/10/08 08:46:13;;;;;;;22.17;9.57;;;;;;;;;;5017010;28;20222;-68
2023/10/08 08:48:40;;;;;;;20.53;9.60;;;;;;;;;;5016622;28;20215;-70
2023/10/08 08:51:09;;;;;;;20.43;11.40;;;;;;;;;;5017663;28;20266;-69
2023/10/08 08:53:38;;;;;;;21.03;11.03;;;;;;;;;;5017393;28;20673;-69
2023/10/08 08:56:09;;;;;;;20.53;10.43;;;;;;;;;;5016260;28;20258;-68
2023/10/08 08:58:35;;;;;;;18.13;11.23;;;;;;;;;;5015030;28;20202;-68
2023/10/08 09:01:03;;;;;;;23.17;10.70;;;;;;;;;;5015054;28;20203;-68
2023/10/08 09:03:32;;;;;;;22.47;11.87;;;;;;;;;;5014985;28;20175;-68
2023/10/08 09:05:59;;;;;;;22.87;12.57;;;;;;;;;;5016204;28;20559;-67
2023/10/08 09:08:42;;;;;;;19.73;13.40;;;;;;;;;;5015072;28;20184;-68
2023/10/08 09:11:08;;;;;;;28.33;14.30;;;;;;;;;;5016095;28;20190;-67
2023/10/08 09:13:34;;;;;;;24.80;13.43;;;;;;;;;;5015673;28;20179;-66
2023/10/08 09:16:03;;;;;;;23.90;12.87;;;;;;;;;;5016159;28;20214;-67
2023/10/08 09:18:32;;;;;;;24.00;13.97;;;;;;;;;;5014863;28;20184;-66
2023/10/08 09:21:10;;;;;;;21.10;12.23;;;;;;;;;;5016897;28;20199;-68
2023/10/08 09:23:39;;;;;;;18.20;12.30;;;;;;;;;;5016446;28;20156;-66
2023/10/08 09:26:08;;;;;;;15.80;11.97;;;;;;;;;;5015599;28;20206;-67
2023/10/08 09:28:34;;;;;;;16.40;12.33;;;;;;;;;;5016683;28;20230;-66
2023/10/08 09:31:00;;;;;;;20.30;14.30;;;;;;;;;;5018126;28;20182;-67
2023/10/08 09:33:28;;;;;;;30.23;17.70;;;;;;;;;;5018418;28;20525;-68
2023/10/08 09:35:57;;;;;;;24.17;17.43;;;;;;;;;;5019243;28;20231;-68
2023/10/08 09:38:23;;;;;;;27.73;21.00;;;;;;;;;;5016500;28;20657;-67
2023/10/08 09:40:50;;;;;;;29.17;20.83;;;;;;;;;;5017027;28;20666;-65
2023/10/08 09:43:16;;;;;;;33.20;20.57;;;;;;;;;;5014181;28;20195;-67
2023/10/08 09:45:44;;;;;;;28.77;20.20;;;;;;;;;;5015134;28;20322;-68
2023/10/08 09:48:16;;;;;;;23.43;18.07;;;;;;;;;;5015190;28;20180;-67
2023/10/08 09:50:42;;;;;;;25.83;15.47;;;;;;;;;;5014144;28;20292;-66
2023/10/08 09:53:22;;;;;;;23.83;14.33;;;;;;;;;;5014683;28;20179;-66
2023/10/08 09:55:58;;;;;;;26.13;14.73;;;;;;;;;;5013758;28;20199;-67
2023/10/08 09:58:25;;;;;;;23.37;12.77;;;;;;;;;;5014967;28;20657;-67
2023/10/08 10:00:53;;;;;;;22.40;12.27;;;;;;;;;;5016655;28;20207;-69
2023/10/08 10:03:20;;;;;;;23.70;13.47;;;;;;;;;;5014843;28;20171;-68
2023/10/08 10:05:49;;;;;;;28.20;17.40;;;;;;;;;;5014237;28;20199;-68
2023/10/08 10:08:15;;;;;;;25.10;15.57;;;;;;;;;;5015666;28;20214;-67
2023/10/08 10:10:45;;;;;;;21.13;14.50;;;;;;;;;;5016006;28;20184;-68
2023/10/08 10:13:11;;;;;;;23.87;14.10;;;;;;;;;;5016905;28;20674;-68
2023/10/08 10:15:38;;;;;;;27.20;16.97;;;;;;;;;;5015350;28;20200;-67
2023/10/08 10:18:10;;;;;;;22.50;16.73;;;;;;;;;;5014473;28;20254;-68
2023/10/08 10:20:40;;;;;;;24.30;16.20;;;;;;;;;;5014602;28;20203;-67
2023/10/08 10:23:25;;;;;;;24.07;16.10;;;;;;;;;;5016047;28;20183;-68
2023/10/08 10:25:54;;;;;;;22.57;14.13;;;;;;;;;;5016840;28;20697;-68
2023/10/08 10:28:23;;;;;;;26.57;15.63;;;;;;;;;;5015135;28;20680;-68
2023/10/08 10:30:49;;;;;;;23.43;14.53;;;;;;;;;;5014822;28;20171;-68
2023/10/08 10:33:15;;;;;;;22.90;15.00;;;;;;;;;;5014918;28;20266;-68
2023/10/08 10:35:50;;;;;;;23.67;15.50;;;;;;;;;;5014461;28;20246;-68
2023/10/08 10:38:20;;;;;;;25.83;15.10;;;;;;;;;;5013606;28;20175;-68
2023/10/08 10:40:56;;;;;;;21.27;14.73;;;;;;;;;;5016511;28;20229;-68
2023/10/08 10:43:31;;;;;;;20.27;13.77;;;;;;;;;;5014955;28;20626;-69
2023/10/08 10:45:57;;;;;;;19.10;12.60;;;;;;;;;;5012902;28;20577;-68
2023/10/08 10:48:25;;;;;;;19.73;14.00;;;;;;;;;;5014950;28;20175;-68
2023/10/08 10:53:44;;;;;;;21.73;12.80;;;;;;;;;;5014360;28;20168;-68
2023/10/08 10:56:29;;;;;;;24.00;12.87;;;;;;;;;;5012987;28;20294;-69
2023/10/08 10:58:59;;;;;;;25.83;13.13;;;;;;;;;;5013478;28;20187;-69
2023/10/08 11:01:29;;;;;;;19.37;12.83;;;;;;;;;;5013660;28;20204;-68
2023/10/08 11:03:57;;;;;;;20.03;13.73;;;;;;;;;;5012833;28;20600;-67
2023/10/08 11:06:23;;;;;;;20.27;13.37;;;;;;;;;;5013538;28;20203;-67
2023/10/08 11:08:50;;;;;;;21.83;12.93;;;;;;;;;;5014385;28;20180;-68
2023/10/08 11:11:29;;;;;;;20.07;13.13;;;;;;;;;;5013991;28;20208;-68
2023/10/08 11:14:00;;;;;;;24.97;12.87;;;;;;;;;;5013115;28;20183;-68
2023/10/08 11:16:26;;;;;;;21.63;12.40;;;;;;;;;;5013937;28;20279;-69
2023/10/08 11:18:57;;;;;;;23.57;13.00;;;;;;;;;;5014320;28;20532;-69
2023/10/08 11:21:25;;;;;;;23.83;12.93;;;;;;;;;;5015476;28;20641;-69
2023/10/08 11:23:53;;;;;;;21.47;13.27;;;;;;;;;;5014860;28;20176;-67
2023/10/08 11:26:19;;;;;;;19.73;13.63;;;;;;;;;;5014419;28;20218;-67
2023/10/08 11:28:47;;;;;;;;;;;;;;;;;;5013478;28;20217;-68
2023/10/08 11:31:14;;;;;;;;;;;;;;;;;;5014491;28;20316;-68
2023/10/08 11:33:40;;;;;;;;;;;;;;;;;;5014491;28;19906;-68
2023/10/08 11:38:53;;;;;;;;;;;;;;;;;;5014169;28;19913;-68
2023/10/08 11:41:22;;;;;;;;;;;;;;;;;;5014534;28;20452;-68
2023/10/08 11:43:48;;;;;;;;;;;;;;;;;;5014868;28;19905;-68
2023/10/08 11:46:18;;;;;;;;;;;;;;;;;;5013994;28;19963;-68
2023/10/08 11:48:46;;;;;;;;;;;;;;;;;;5014544;28;20265;-68
2023/10/08 11:51:13;;;;;;;;;;;;;;;;;;5014503;28;19909;-69
2023/10/08 11:53:39;;;;;;;;;;;;;;;;;;5014742;28;20292;-68
2023/10/08 11:56:12;;;;;;;;;;;;;;;;;;5014232;28;19909;-68
2023/10/08 11:58:38;;;;;;;13.80;6.70;;;;;;;;;;5012568;28;20419;-67
2023/10/08 12:01:05;;;;;;;9.10;6.80;;;;;;;;;;5013518;28;20246;-67
2023/10/08 12:03:31;;;;;;;11.20;7.03;;;;;;;;;;5013135;28;20176;-67
2023/10/08 12:06:01;;;;;;;7.93;5.63;;;;;;;;;;5011608;28;20203;-68
2023/10/08 12:08:27;;;;;;;9.73;5.67;;;;;;;;;;5014018;28;20620;-66
2023/10/08 12:11:00;;;;;;;9.83;5.30;;;;;;;;;;5011642;28;20653;-68
2023/10/08 12:13:28;;;;;;;13.10;5.93;;;;;;;;;;5016497;28;20175;-68
2023/10/08 12:16:12;;;;;;;11.77;6.03;;;;;;;;;;5016594;28;20753;-68
2023/10/08 12:18:43;;;;;;;8.87;5.43;;;;;;;;;;5016756;28;20188;-68
2023/10/08 12:21:15;;;;;;;9.20;5.43;;;;;;;;;;5015124;28;20199;-68
2023/10/08 12:23:43;;;;;;;12.83;5.83;;;;;;;;;;5016449;28;20227;-68
2023/10/08 12:26:09;;;;;;;13.93;6.30;;;;;;;;;;5016554;28;20709;-70
2023/10/08 12:28:36;;;;;;;11.30;5.40;;;;;;;;;;5016196;28;20267;-68
2023/10/08 12:31:03;;;;;;;11.27;5.97;;;;;;;;;;5016906;28;20199;-69
2023/10/08 12:33:31;;;;;;;11.87;6.20;;;;;;;;;;5017511;28;20176;-69
2023/10/08 12:35:57;;;;;;;10.63;5.90;;;;;;;;;;5016921;28;20211;-68
2023/10/08 12:38:23;;;;;;;13.13;6.43;;;;;;;;;;5017079;28;20225;-69
2023/10/08 12:40:53;;;;;;;10.17;6.13;;;;;;;;;;5018370;28;20250;-68
2023/10/08 12:43:19;;;;;;;8.50;5.53;;;;;;;;;;5016190;28;20199;-68
2023/10/08 12:45:56;;;;;;;11.60;6.40;;;;;;;;;;5014912;28;20612;-68
2023/10/08 12:48:23;;;;;;;12.63;6.70;;;;;;;;;;5016350;28;20206;-69
2023/10/08 12:50:59;;;;;;;13.40;6.53;;;;;;;;;;5015598;28;20183;-68
2023/10/08 12:53:39;;;;;;;10.80;6.67;;;;;;;;;;5016005;28;20214;-68
2023/10/08 12:56:05;;;;;;;9.53;6.00;;;;;;;;;;5016233;28;20615;-68
2023/10/08 12:58:34;;;;;;;11.80;6.47;;;;;;;;;;5020470;23;20228;-70
2023/10/08 13:01:03;;;;;;;12.37;5.90;;;;;;;;;;4995454;28;20231;-70
2023/10/08 13:03:33;;;;;;;13.27;5.93;;;;;;;;;;4995536;28;20180;-72
2023/10/08 13:06:11;;;;;;;7.87;5.57;;;;;;;;;;4995234;28;20177;-72
2023/10/08 13:08:37;;;;;;;9.40;6.03;;;;;;;;;;4996481;28;20236;-70
2023/10/08 13:11:04;;;;;;;13.70;6.33;;;;;;;;;;4995986;28;20212;-72
2023/10/08 13:13:33;;;;;;;10.43;6.20;;;;;;;;;;4995484;28;20185;-70
2023/10/08 13:16:02;;;;;;;9.70;6.13;;;;;;;;;;4995257;28;20185;-71
2023/10/08 13:18:29;;;;;;;14.37;6.23;;;;;;;;;;4996269;28;20207;-70
2023/10/08 13:20:57;;;;;;;10.60;6.23;;;;;;;;;;4994727;28;20724;-70
2023/10/08 13:23:23;;;;;;;9.93;6.07;;;;;;;;;;4994947;28;20175;-70
2023/10/08 13:25:58;;;;;;;10.07;5.77;;;;;;;;;;4995404;28;20211;-70
2023/10/08 13:28:26;;;;;;;9.23;5.60;;;;;;;;;;4996117;28;20562;-70
2023/10/08 13:30:56;;;;;;;9.73;5.80;;;;;;;;;;4994578;28;20192;-71
2023/10/08 13:33:22;;;;;;;10.10;6.17;;;;;;;;;;4994539;28;20184;-71
2023/10/08 13:35:51;;;;;;;10.63;6.07;;;;;;;;;;4996063;28;20231;-70
2023/10/08 13:38:19;;;;;;;10.47;6.47;;;;;;;;;;4994087;28;20270;-70
2023/10/08 13:41:02;;;;;;;9.27;5.50;;;;;;;;;;4994223;28;20583;-70
2023/10/08 13:43:33;;;;;;;9.53;6.53;;;;;;;;;;4994700;28;20635;-70
2023/10/08 13:46:03;;;;;;;12.23;6.00;;;;;;;;;;4995803;28;20161;-70
2023/10/08 13:48:30;;;;;;;9.53;5.83;;;;;;;;;;4995572;28;20195;-69
2023/10/08 13:50:56;;;;;;;10.17;6.60;;;;;;;;;;4994339;28;20263;-70
2023/10/08 13:53:22;;;;;;;8.93;6.33;;;;;;;;;;4995327;28;20231;-70
2023/10/08 13:55:48;;;;;;;10.87;7.33;;;;;;;;;;4994077;28;20180;-70
2023/10/08 13:58:14;;;;;;;10.97;6.90;;;;;;;;;;4994342;28;20224;-71
2023/10/08 14:00:40;;;;;;;8.67;5.90;;;;;;;;;;4995648;28;20569;-71
2023/10/08 14:03:08;;;;;;;12.13;6.53;;;;;;;;;;4994074;28;20184;-72
2023/10/08 14:05:34;;;;;;;9.27;6.10;;;;;;;;;;4995575;28;20179;-72
2023/10/08 14:08:02;;;;;;;10.53;6.50;;;;;;;;;;4994040;28;20200;-71
2023/10/08 14:10:29;;;;;;;10.13;5.90;;;;;;;;;;4996442;28;20266;-70
2023/10/08 14:12:55;;;;;;;9.47;5.80;;;;;;;;;;4995974;28;20199;-71
2023/10/08 14:15:22;;;;;;;10.33;6.13;;;;;;;;;;4995550;28;20256;-70
2023/10/08 14:17:49;;;;;;;7.37;6.00;;;;;;;;;;4995373;28;20211;-70
2023/10/08 14:20:21;;;;;;;14.37;6.47;;;;;;;;;;4995519;28;20207;-70
2023/10/08 14:22:52;;;;;;;10.33;7.03;;;;;;;;;;4993992;28;20172;-69
2023/10/08 14:25:24;;;;;;;11.73;7.07;;;;;;;;;;4995035;28;20244;-69
2023/10/08 14:27:52;;;;;;;13.13;7.40;;;;;;;;;;4993189;28;20196;-69
2023/10/08 14:30:21;;;;;;;9.53;6.30;;;;;;;;;;4994544;28;20256;-70
2023/10/08 14:32:48;;;;;;;11.43;7.00;;;;;;;;;;4992823;28;20212;-69
2023/10/08 14:43:31;;;;;;;14.60;8.23;;;;;;;;;;4994717;28;20198;-70
2023/10/08 14:45:59;;;;;;;9.63;7.80;;;;;;;;;;4992626;28;20268;-70
2023/10/08 14:48:27;;;;;;;13.20;8.70;;;;;;;;;;4994116;28;20188;-70
2023/10/08 14:50:53;;;;;;;17.80;9.47;;;;;;;;;;4992668;28;20176;-70
2023/10/08 14:53:19;;;;;;;14.27;9.80;;;;;;;;;;4994202;28;20264;-70
2023/10/08 14:55:47;;;;;;;14.27;8.53;;;;;;;;;;4992482;28;20268;-70
2023/10/08 14:58:14;;;;;;;13.27;8.70;;;;;;;;;;4993639;28;20323;-69
2023/10/08 15:00:41;;;;;;;20.60;9.33;;;;;;;;;;4993817;28;20207;-70
2023/10/08 15:03:08;;;;;;;16.50;9.63;;;;;;;;;;4993784;28;20168;-70
2023/10/08 15:05:36;;;;;;;12.37;8.67;;;;;;;;;;4993734;28;20173;-69
2023/10/08 15:08:05;;;;;;;13.10;8.53;;;;;;;;;;4992371;28;20736;-69
2023/10/08 15:10:31;;;;;;;14.67;7.87;;;;;;;;;;4993572;28;20256;-70
2023/10/08 15:12:57;;;;;;;14.80;7.70;;;;;;;;;;4993653;28;20239;-70
2023/10/08 15:15:24;;;;;;;14.50;8.20;;;;;;;;;;4992460;28;20188;-70
2023/10/08 15:17:51;;;;;;;12.20;7.47;;;;;;;;;;4992569;28;20295;-69
2023/10/08 15:20:19;;;;;;;16.07;7.57;;;;;;;;;;4993537;28;20205;-69
2023/10/08 15:22:47;;;;;;;15.97;8.07;;;;;;;;;;4993896;28;20169;-70
2023/10/08 15:25:14;;;;;;;15.93;7.80;;;;;;;;;;4992817;28;20611;-70
2023/10/08 15:27:40;;;;;;;12.33;7.03;;;;;;;;;;4992330;28;20197;-70
2023/10/08 15:30:11;;;;;;;15.87;7.03;;;;;;;;;;4994339;28;20177;-69
2023/10/08 15:32:37;;;;;;;12.43;6.40;;;;;;;;;;4994085;28;20185;-69
2023/10/08 15:35:03;;;;;;;11.53;6.60;;;;;;;;;;4994071;28;20646;-70
2023/10/08 15:37:29;;;;;;;10.63;6.77;;;;;;;;;;4992558;28;20635;-69
2023/10/08 15:39:55;;;;;;;7.50;5.77;;;;;;;;;;4994325;28;20207;-69
2023/10/08 15:42:21;;;;;;;13.93;6.50;;;;;;;;;;4992478;28;20254;-70
2023/10/08 15:44:48;;;;;;;13.27;6.03;;;;;;;;;;4993708;28;20177;-69
2023/10/08 15:47:14;;;;;;;10.10;6.50;;;;;;;;;;4993744;28;20260;-70
2023/10/08 15:49:40;;;;;;;11.50;6.07;;;;;;;;;;4995765;28;20185;-70